Lebanon Springfield-George Hoerter Field (6I2)

 

Airport Diagram
No Airport Diagram Available
Current Weather/Forecast (VFR Conditions)
METAR K6I2 232335Z AUTO 17006KT 10SM CLR 20/18 A2999 RMK AO2
TAF

Airport Information

All Charts
General
Chart Name View
TAKEOFF MINIMUMS
ALTERNATE MINIMUMS
TAKEOFF MINIMUMS
ALTERNATE MINIMUMS

Approaches
Chart Name Download
RNAV (GPS) RWY 11
RNAV (GPS) RWY 29
VOR/DME RWY 11
RNAV (GPS) RWY 11
RNAV (GPS) RWY 29
VOR/DME RWY 11


Airport Statistics
Departures Arrivals Local
All Collected Stats since June 2016: 4 4 0
2020 Stats: 0 0 0
October Stats: 0 0 0

Inbound Traffic (Arrivals) - 0

No inbound traffic.


Outbound Traffic (Departures) - 0

No outbound traffic.


Local Traffic (Pattern) - 0

No local traffic.